sensor_id;sensor_type;location;lat;lon;timestamp;P1;durP1;ratioP1;P2;durP2;ratioP2
36963;SDS011;22878;48.616;35.326;2023-10-13T11:53:47;35.20;;;15.50;;
36963;SDS011;22878;48.616;35.326;2023-10-13T12:00:51;35.70;;;15.40;;
36963;SDS011;22878;48.616;35.326;2023-10-13T12:03:26;35.10;;;15.70;;
36963;SDS011;22878;48.616;35.326;2023-10-13T12:06:11;39.10;;;16.20;;
36963;SDS011;22878;48.616;35.326;2023-10-13T12:09:04;36.90;;;16.70;;
36963;SDS011;22878;48.616;35.326;2023-10-13T12:15:05;40.60;;;17.40;;
36963;SDS011;22878;48.616;35.326;2023-10-13T12:17:51;39.60;;;17.40;;
36963;SDS011;22878;48.616;35.326;2023-10-13T12:20:17;41.10;;;19.20;;
36963;SDS011;22878;48.616;35.326;2023-10-13T12:23:01;45.30;;;20.60;;
36963;SDS011;22878;48.616;35.326;2023-10-13T12:25:42;45.90;;;19.90;;
36963;SDS011;22878;48.616;35.326;2023-10-13T12:28:23;43.70;;;19.80;;
36963;SDS011;22878;48.616;35.326;2023-10-13T12:30:49;52.50;;;21.50;;
36963;SDS011;22878;48.616;35.326;2023-10-13T12:33:20;47.70;;;20.80;;
36963;SDS011;22878;48.616;35.326;2023-10-13T12:38:39;55.10;;;21.30;;
36963;SDS011;22878;48.616;35.326;2023-10-13T12:41:11;55.90;;;23.30;;
36963;SDS011;22878;48.616;35.326;2023-10-13T12:43:54;51.20;;;22.50;;
36963;SDS011;22878;48.616;35.326;2023-10-13T12:46:39;63.10;;;22.90;;
36963;SDS011;22878;48.616;35.326;2023-10-13T12:49:23;48.80;;;21.10;;
36963;SDS011;22878;48.616;35.326;2023-10-13T12:55:10;50.70;;;23.20;;
36963;SDS011;22878;48.616;35.326;2023-10-13T12:57:38;57.40;;;23.00;;
36963;SDS011;22878;48.616;35.326;2023-10-13T13:00:25;53.50;;;23.20;;
36963;SDS011;22878;48.616;35.326;2023-10-13T13:02:51;52.80;;;22.70;;
36963;SDS011;22878;48.616;35.326;2023-10-13T13:05:37;49.90;;;22.70;;
36963;SDS011;22878;48.616;35.326;2023-10-13T13:08:09;51.00;;;21.70;;
36963;SDS011;22878;48.616;35.326;2023-10-13T13:10:37;48.00;;;20.80;;
36963;SDS011;22878;48.616;35.326;2023-10-13T13:13:03;44.30;;;20.20;;
36963;SDS011;22878;48.616;35.326;2023-10-13T13:15:29;46.20;;;20.80;;
36963;SDS011;22878;48.616;35.326;2023-10-13T13:21:08;40.70;;;18.50;;
36963;SDS011;22878;48.616;35.326;2023-10-13T13:23:37;41.00;;;18.20;;
36963;SDS011;22878;48.616;35.326;2023-10-13T13:26:05;37.70;;;17.20;;
36963;SDS011;22878;48.616;35.326;2023-10-13T13:31:43;44.40;;;17.10;;
36963;SDS011;22878;48.616;35.326;2023-10-13T13:34:10;36.50;;;16.70;;
36963;SDS011;22878;48.616;35.326;2023-10-13T13:39:38;36.40;;;17.80;;
36963;SDS011;22878;48.616;35.326;2023-10-13T13:46:03;40.40;;;16.60;;
36963;SDS011;22878;48.616;35.326;2023-10-13T13:51:52;36.60;;;17.30;;
36963;SDS011;22878;48.616;35.326;2023-10-13T13:54:20;38.40;;;17.40;;
36963;SDS011;22878;48.616;35.326;2023-10-13T13:56:49;35.00;;;16.50;;
36963;SDS011;22878;48.616;35.326;2023-10-13T13:59:15;33.90;;;15.90;;
36963;SDS011;22878;48.616;35.326;2023-10-13T14:01:42;38.60;;;15.40;;
36963;SDS011;22878;48.616;35.326;2023-10-13T14:04:09;41.00;;;16.40;;
36963;SDS011;22878;48.616;35.326;2023-10-13T14:06:35;29.50;;;15.80;;
36963;SDS011;22878;48.616;35.326;2023-10-13T14:09:00;37.20;;;15.60;;
36963;SDS011;22878;48.616;35.326;2023-10-13T14:14:31;34.00;;;15.40;;
36963;SDS011;22878;48.616;35.326;2023-10-13T14:16:58;38.00;;;16.20;;
36963;SDS011;22878;48.616;35.326;2023-10-13T14:19:33;39.20;;;16.80;;
36963;SDS011;22878;48.616;35.326;2023-10-13T14:21:59;36.00;;;16.70;;
36963;SDS011;22878;48.616;35.326;2023-10-13T14:24:31;36.50;;;16.90;;
36963;SDS011;22878;48.616;35.326;2023-10-13T14:27:01;34.30;;;16.30;;
36963;SDS011;22878;48.616;35.326;2023-10-13T14:32:17;30.40;;;14.90;;
36963;SDS011;22878;48.616;35.326;2023-10-13T14:34:43;30.60;;;15.10;;
36963;SDS011;22878;48.616;35.326;2023-10-13T14:40:12;33.80;;;15.10;;
36963;SDS011;22878;48.616;35.326;2023-10-13T14:42:39;31.10;;;15.20;;
36963;SDS011;22878;48.616;35.326;2023-10-13T14:45:08;30.90;;;14.40;;
36963;SDS011;22878;48.616;35.326;2023-10-13T14:47:41;31.90;;;15.70;;
36963;SDS011;22878;48.616;35.326;2023-10-13T14:50:07;31.30;;;15.40;;
36963;SDS011;22878;48.616;35.326;2023-10-13T14:52:39;35.60;;;16.80;;
36963;SDS011;22878;48.616;35.326;2023-10-13T14:55:04;32.30;;;15.90;;
36963;SDS011;22878;48.616;35.326;2023-10-13T14:57:32;32.80;;;15.30;;
36963;SDS011;22878;48.616;35.326;2023-10-13T15:00:02;34.80;;;16.70;;
36963;SDS011;22878;48.616;35.326;2023-10-13T15:02:28;36.30;;;16.60;;
36963;SDS011;22878;48.616;35.326;2023-10-13T15:04:53;35.00;;;16.00;;
36963;SDS011;22878;48.616;35.326;2023-10-13T15:13:24;32.90;;;15.70;;
36963;SDS011;22878;48.616;35.326;2023-10-13T15:18:53;36.30;;;15.60;;
36963;SDS011;22878;48.616;35.326;2023-10-13T15:21:28;35.70;;;15.90;;
36963;SDS011;22878;48.616;35.326;2023-10-13T15:23:59;34.00;;;14.80;;
36963;SDS011;22878;48.616;35.326;2023-10-13T15:26:28;35.20;;;15.40;;
36963;SDS011;22878;48.616;35.326;2023-10-13T15:28:54;30.60;;;14.20;;
36963;SDS011;22878;48.616;35.326;2023-10-13T15:34:36;30.90;;;14.00;;
36963;SDS011;22878;48.616;35.326;2023-10-13T15:37:02;33.00;;;13.80;;
36963;SDS011;22878;48.616;35.326;2023-10-13T15:42:32;27.50;;;14.50;;
36963;SDS011;22878;48.616;35.326;2023-10-13T15:44:58;34.90;;;14.40;;
36963;SDS011;22878;48.616;35.326;2023-10-13T15:47:25;32.60;;;14.30;;
36963;SDS011;22878;48.616;35.326;2023-10-13T15:50:10;35.80;;;14.60;;
36963;SDS011;22878;48.616;35.326;2023-10-13T15:52:40;27.40;;;13.80;;
36963;SDS011;22878;48.616;35.326;2023-10-13T15:57:51;34.70;;;16.90;;
36963;SDS011;22878;48.616;35.326;2023-10-13T16:00:18;42.30;;;13.90;;
36963;SDS011;22878;48.616;35.326;2023-10-13T16:02:51;28.20;;;14.40;;
36963;SDS011;22878;48.616;35.326;2023-10-13T16:05:17;31.70;;;14.50;;
36963;SDS011;22878;48.616;35.326;2023-10-13T16:07:42;30.40;;;13.50;;
36963;SDS011;22878;48.616;35.326;2023-10-13T16:10:08;34.60;;;16.40;;
36963;SDS011;22878;48.616;35.326;2023-10-13T16:12:37;39.90;;;18.50;;
36963;SDS011;22878;48.616;35.326;2023-10-13T16:15:02;29.60;;;15.90;;
36963;SDS011;22878;48.616;35.326;2023-10-13T16:17:31;32.50;;;15.50;;
36963;SDS011;22878;48.616;35.326;2023-10-13T16:19:56;30.90;;;15.50;;
36963;SDS011;22878;48.616;35.326;2023-10-13T16:22:22;28.30;;;15.30;;
36963;SDS011;22878;48.616;35.326;2023-10-13T16:24:47;36.40;;;18.10;;
36963;SDS011;22878;48.616;35.326;2023-10-13T16:27:13;42.80;;;20.80;;
36963;SDS011;22878;48.616;35.326;2023-10-13T16:41:49;36.80;;;16.90;;
36963;SDS011;22878;48.616;35.326;2023-10-13T16:44:17;37.60;;;16.10;;
36963;SDS011;22878;48.616;35.326;2023-10-13T16:46:42;36.90;;;16.00;;
36963;SDS011;22878;48.616;35.326;2023-10-13T16:49:08;34.60;;;15.30;;
36963;SDS011;22878;48.616;35.326;2023-10-13T17:00:41;36.10;;;17.10;;
36963;SDS011;22878;48.616;35.326;2023-10-13T17:03:16;39.00;;;16.60;;
36963;SDS011;22878;48.616;35.326;2023-10-13T17:08:45;30.20;;;15.10;;
36963;SDS011;22878;48.616;35.326;2023-10-13T17:14:13;38.30;;;19.20;;
36963;SDS011;22878;48.616;35.326;2023-10-13T17:16:40;37.20;;;18.90;;
36963;SDS011;22878;48.616;35.326;2023-10-13T17:19:11;43.80;;;18.90;;
36963;SDS011;22878;48.616;35.326;2023-10-13T17:21:37;44.10;;;20.50;;
36963;SDS011;22878;48.616;35.326;2023-10-13T17:27:05;50.60;;;22.50;;
36963;SDS011;22878;48.616;35.326;2023-10-13T17:29:32;47.10;;;20.40;;
36963;SDS011;22878;48.616;35.326;2023-10-13T17:32:00;39.90;;;20.00;;
36963;SDS011;22878;48.616;35.326;2023-10-13T17:34:27;42.30;;;19.90;;
36963;SDS011;22878;48.616;35.326;2023-10-13T17:36:54;39.40;;;19.60;;
36963;SDS011;22878;48.616;35.326;2023-10-13T17:39:21;155.60;;;25.30;;
36963;SDS011;22878;48.616;35.326;2023-10-13T17:44:49;100.50;;;29.10;;
36963;SDS011;22878;48.616;35.326;2023-10-13T17:47:14;65.90;;;29.50;;
36963;SDS011;22878;48.616;35.326;2023-10-13T17:49:40;53.10;;;22.40;;
36963;SDS011;22878;48.616;35.326;2023-10-13T17:52:08;85.80;;;21.60;;
36963;SDS011;22878;48.616;35.326;2023-10-13T17:54:34;37.60;;;17.70;;
36963;SDS011;22878;48.616;35.326;2023-10-13T17:57:02;34.40;;;17.60;;
36963;SDS011;22878;48.616;35.326;2023-10-13T17:59:32;37.80;;;17.30;;
36963;SDS011;22878;48.616;35.326;2023-10-13T18:01:57;31.70;;;15.50;;
36963;SDS011;22878;48.616;35.326;2023-10-13T18:04:23;30.20;;;15.20;;
36963;SDS011;22878;48.616;35.326;2023-10-13T18:06:48;36.10;;;16.40;;
36963;SDS011;22878;48.616;35.326;2023-10-13T18:09:13;35.50;;;17.50;;
36963;SDS011;22878;48.616;35.326;2023-10-13T18:11:41;33.70;;;17.70;;
36963;SDS011;22878;48.616;35.326;2023-10-13T18:17:10;28.70;;;15.70;;
36963;SDS011;22878;48.616;35.326;2023-10-13T18:19:41;34.80;;;17.30;;
36963;SDS011;22878;48.616;35.326;2023-10-13T18:22:07;32.90;;;18.10;;
36963;SDS011;22878;48.616;35.326;2023-10-13T18:24:41;40.50;;;18.90;;
36963;SDS011;22878;48.616;35.326;2023-10-13T18:27:06;43.60;;;20.80;;
36963;SDS011;22878;48.616;35.326;2023-10-13T18:29:31;51.20;;;22.50;;
36963;SDS011;22878;48.616;35.326;2023-10-13T18:31:57;59.70;;;26.00;;
36963;SDS011;22878;48.616;35.326;2023-10-13T18:34:24;58.70;;;25.60;;
36963;SDS011;22878;48.616;35.326;2023-10-13T18:36:49;65.10;;;28.90;;
36963;SDS011;22878;48.616;35.326;2023-10-13T18:39:17;67.20;;;26.30;;
36963;SDS011;22878;48.616;35.326;2023-10-13T18:41:49;55.90;;;24.90;;
36963;SDS011;22878;48.616;35.326;2023-10-13T18:44:15;43.20;;;20.10;;
36963;SDS011;22878;48.616;35.326;2023-10-13T18:46:41;54.00;;;23.70;;
36963;SDS011;22878;48.616;35.326;2023-10-13T18:49:07;53.50;;;22.60;;
36963;SDS011;22878;48.616;35.326;2023-10-13T18:51:35;57.20;;;25.30;;
36963;SDS011;22878;48.616;35.326;2023-10-13T18:54:01;49.90;;;23.80;;
36963;SDS011;22878;48.616;35.326;2023-10-13T18:56:26;53.80;;;26.10;;
36963;SDS011;22878;48.616;35.326;2023-10-13T18:58:53;65.60;;;27.30;;
36963;SDS011;22878;48.616;35.326;2023-10-13T19:01:22;148.70;;;28.90;;
36963;SDS011;22878;48.616;35.326;2023-10-13T19:03:57;59.90;;;25.80;;
36963;SDS011;22878;48.616;35.326;2023-10-13T19:06:24;103.00;;;29.80;;
36963;SDS011;22878;48.616;35.326;2023-10-13T19:08:53;124.20;;;35.40;;
36963;SDS011;22878;48.616;35.326;2023-10-13T19:17:24;180.00;;;42.30;;
36963;SDS011;22878;48.616;35.326;2023-10-13T19:19:52;145.90;;;42.50;;
36963;SDS011;22878;48.616;35.326;2023-10-13T19:22:17;262.60;;;53.40;;
36963;SDS011;22878;48.616;35.326;2023-10-13T19:24:43;167.00;;;50.60;;
36963;SDS011;22878;48.616;35.326;2023-10-13T19:27:08;162.10;;;52.30;;
36963;SDS011;22878;48.616;35.326;2023-10-13T19:29:33;153.20;;;51.60;;
36963;SDS011;22878;48.616;35.326;2023-10-13T19:31:58;209.20;;;50.40;;
36963;SDS011;22878;48.616;35.326;2023-10-13T19:34:25;225.70;;;53.30;;
36963;SDS011;22878;48.616;35.326;2023-10-13T19:39:54;195.70;;;70.70;;
36963;SDS011;22878;48.616;35.326;2023-10-13T19:51:32;263.00;;;87.60;;
36963;SDS011;22878;48.616;35.326;2023-10-13T19:57:00;219.60;;;78.00;;
36963;SDS011;22878;48.616;35.326;2023-10-13T19:59:29;204.80;;;72.20;;
36963;SDS011;22878;48.616;35.326;2023-10-13T20:01:55;169.40;;;66.30;;
36963;SDS011;22878;48.616;35.326;2023-10-13T20:04:21;206.80;;;72.00;;
36963;SDS011;22878;48.616;35.326;2023-10-13T20:06:46;223.80;;;74.20;;
36963;SDS011;22878;48.616;35.326;2023-10-13T20:12:14;175.80;;;62.10;;
36963;SDS011;22878;48.616;35.326;2023-10-13T20:14:41;164.80;;;62.70;;
36963;SDS011;22878;48.616;35.326;2023-10-13T20:17:06;158.30;;;59.20;;
36963;SDS011;22878;48.616;35.326;2023-10-13T20:19:32;171.20;;;60.20;;
36963;SDS011;22878;48.616;35.326;2023-10-13T20:21:57;187.30;;;64.00;;
36963;SDS011;22878;48.616;35.326;2023-10-13T20:27:31;190.70;;;68.80;;
36963;SDS011;22878;48.616;35.326;2023-10-13T20:32:59;241.90;;;77.60;;
36963;SDS011;22878;48.616;35.326;2023-10-13T20:35:24;202.70;;;70.40;;
36963;SDS011;22878;48.616;35.326;2023-10-13T20:37:50;177.60;;;56.90;;
36963;SDS011;22878;48.616;35.326;2023-10-13T20:40:18;160.90;;;54.70;;
36963;SDS011;22878;48.616;35.326;2023-10-13T20:45:46;172.50;;;44.40;;
36963;SDS011;22878;48.616;35.326;2023-10-13T20:51:15;148.10;;;43.50;;
36963;SDS011;22878;48.616;35.326;2023-10-13T20:53:40;110.90;;;38.00;;
36963;SDS011;22878;48.616;35.326;2023-10-13T20:56:07;99.80;;;31.10;;
36963;SDS011;22878;48.616;35.326;2023-10-13T20:58:33;112.30;;;33.20;;
36963;SDS011;22878;48.616;35.326;2023-10-13T21:04:01;121.80;;;34.30;;
36963;SDS011;22878;48.616;35.326;2023-10-13T21:06:26;102.90;;;31.10;;
36963;SDS011;22878;48.616;35.326;2023-10-13T21:08:53;114.90;;;32.60;;
36963;SDS011;22878;48.616;35.326;2023-10-13T21:11:20;114.40;;;29.50;;
36963;SDS011;22878;48.616;35.326;2023-10-13T21:13:46;102.40;;;27.90;;
36963;SDS011;22878;48.616;35.326;2023-10-13T21:16:12;126.50;;;25.90;;
36963;SDS011;22878;48.616;35.326;2023-10-13T21:18:43;94.50;;;24.20;;
36963;SDS011;22878;48.616;35.326;2023-10-13T21:21:09;74.80;;;21.00;;
36963;SDS011;22878;48.616;35.326;2023-10-13T21:23:49;74.30;;;21.10;;
36963;SDS011;22878;48.616;35.326;2023-10-13T21:29:18;77.60;;;22.80;;
36963;SDS011;22878;48.616;35.326;2023-10-13T21:34:49;37.70;;;15.50;;
36963;SDS011;22878;48.616;35.326;2023-10-13T21:40:18;72.00;;;19.70;;
36963;SDS011;22878;48.616;35.326;2023-10-13T21:48:50;41.90;;;16.40;;
36963;SDS011;22878;48.616;35.326;2023-10-13T21:54:18;38.00;;;15.00;;
36963;SDS011;22878;48.616;35.326;2023-10-13T22:02:49;59.30;;;19.30;;
36963;SDS011;22878;48.616;35.326;2023-10-13T22:08:17;89.90;;;20.30;;
36963;SDS011;22878;48.616;35.326;2023-10-13T22:16:51;77.40;;;19.20;;
36963;SDS011;22878;48.616;35.326;2023-10-13T22:19:17;60.20;;;21.70;;
36963;SDS011;22878;48.616;35.326;2023-10-13T22:27:50;88.40;;;23.40;;
36963;SDS011;22878;48.616;35.326;2023-10-13T22:33:18;91.80;;;24.30;;
36963;SDS011;22878;48.616;35.326;2023-10-13T22:35:44;65.10;;;23.90;;
36963;SDS011;22878;48.616;35.326;2023-10-13T22:38:09;61.60;;;22.70;;
36963;SDS011;22878;48.616;35.326;2023-10-13T22:40:36;82.50;;;23.40;;
36963;SDS011;22878;48.616;35.326;2023-10-13T22:46:08;68.80;;;24.50;;
36963;SDS011;22878;48.616;35.326;2023-10-13T22:48:33;48.60;;;23.50;;
36963;SDS011;22878;48.616;35.326;2023-10-13T22:51:03;91.70;;;23.30;;
36963;SDS011;22878;48.616;35.326;2023-10-13T22:53:29;82.10;;;23.70;;
36963;SDS011;22878;48.616;35.326;2023-10-13T22:55:54;162.20;;;28.10;;
36963;SDS011;22878;48.616;35.326;2023-10-13T23:01:23;146.60;;;28.00;;
36963;SDS011;22878;48.616;35.326;2023-10-13T23:09:54;74.90;;;24.30;;
36963;SDS011;22878;48.616;35.326;2023-10-13T23:18:29;129.70;;;26.50;;
36963;SDS011;22878;48.616;35.326;2023-10-13T23:20:54;155.30;;;25.40;;
36963;SDS011;22878;48.616;35.326;2023-10-13T23:29:25;123.00;;;24.60;;
36963;SDS011;22878;48.616;35.326;2023-10-13T23:40:58;100.40;;;26.10;;
36963;SDS011;22878;48.616;35.326;2023-10-13T23:43:27;114.60;;;27.00;;
36963;SDS011;22878;48.616;35.326;2023-10-13T23:51:57;126.40;;;26.10;;
36963;SDS011;22878;48.616;35.326;2023-10-13T23:57:28;114.80;;;24.60;;
